Time;durP1;ratioP1;P1;durP2;ratioP2;P2;SDS_P1;SDS_P2;PMS_P1;PMS_P2;Temp;Humidity;BMP_temperature;BMP_pressure;BME280_temperature;BME280_humidity;BME280_pressure;Samples;Min_cycle;Max_cycle;Signal;HPM_P1;HPM_P2
2022/08/09 00:02:30;;;;;;;7.20;1.40;;;;;;;14.02;65.19;101178.40;106797;1265;22515;-73
2022/08/09 00:05:02;;;;;;;8.50;1.50;;;;;;;13.99;65.13;101180.64;106750;1265;23199;-73
2022/08/09 00:07:33;;;;;;;4.70;1.20;;;;;;;13.93;65.33;101183.67;106774;1265;22592;-73
2022/08/09 00:10:05;;;;;;;6.60;1.30;;;;;;;13.89;65.72;101185.84;106726;1265;22521;-73
2022/08/09 00:12:36;;;;;;;4.00;1.20;;;;;;;13.84;65.63;101184.05;106935;1265;25352;-73
2022/08/09 00:15:10;;;;;;;7.20;1.30;;;;;;;13.81;65.65;101183.48;106825;1265;25340;-73
2022/08/09 00:17:41;;;;;;;6.90;1.20;;;;;;;13.77;65.90;101184.88;106874;1265;24240;-72
2022/08/09 00:20:13;;;;;;;5.40;1.10;;;;;;;13.73;65.92;101180.82;106823;1265;23321;-73
2022/08/09 00:22:45;;;;;;;8.00;1.30;;;;;;;13.68;66.11;101178.92;106866;1265;24219;-72
2022/08/09 00:25:16;;;;;;;5.00;1.20;;;;;;;13.65;66.33;101183.61;106802;1265;22469;-73
2022/08/09 00:27:47;;;;;;;6.10;1.10;;;;;;;13.62;66.59;101181.14;106787;1265;25567;-73
2022/08/09 00:30:20;;;;;;;8.70;1.40;;;;;;;13.60;67.00;101179.77;106835;1265;22551;-73
2022/08/09 00:32:51;;;;;;;16.80;3.10;;;;;;;13.56;67.10;101181.31;106861;1265;22843;-73
2022/08/09 00:35:22;;;;;;;16.20;1.90;;;;;;;13.52;67.12;101179.04;106712;1265;25341;-73
2022/08/09 00:37:54;;;;;;;17.00;1.90;;;;;;;13.47;67.55;101182.40;106700;1265;23996;-73
2022/08/09 00:40:25;;;;;;;18.30;2.90;;;;;;;13.43;67.49;101182.35;106776;1265;22585;-73
2022/08/09 00:42:56;;;;;;;12.00;1.70;;;;;;;13.39;67.75;101184.34;106814;1263;22578;-73
2022/08/09 00:45:27;;;;;;;12.40;2.20;;;;;;;13.34;67.73;101193.41;106794;1265;25673;-73
2022/08/09 00:47:59;;;;;;;14.10;1.60;;;;;;;13.28;67.76;101188.27;106731;1265;25037;-72
2022/08/09 00:50:30;;;;;;;11.30;1.40;;;;;;;13.23;68.07;101189.07;106749;1265;22664;-73
2022/08/09 00:53:01;;;;;;;11.90;1.90;;;;;;;13.19;68.13;101190.86;106703;1265;22481;-72
2022/08/09 00:55:32;;;;;;;8.80;1.40;;;;;;;13.16;68.04;101186.91;106801;1265;22538;-73
2022/08/09 00:58:03;;;;;;;8.90;1.50;;;;;;;13.13;68.14;101190.92;106844;1265;25431;-73
2022/08/09 01:00:36;;;;;;;6.10;1.20;;;;;;;13.09;68.13;101188.35;106893;1265;25589;-73
2022/08/09 01:03:15;;;;;;;7.60;1.20;;;;;;;13.07;68.18;101196.75;106883;1265;22531;-73
2022/08/09 01:05:52;;;;;;;10.60;1.30;;;;;;;13.04;68.23;101194.46;106984;1265;22522;-73
2022/08/09 01:08:33;;;;;;;6.30;1.50;;;;;;;13.00;68.19;101194.46;106871;1265;22524;-72
2022/08/09 01:11:17;;;;;;;6.10;1.30;;;;;;;12.97;68.15;101197.15;106835;1265;22532;-73
2022/08/09 01:13:55;;;;;;;9.10;1.30;;;;;;;12.94;68.36;101200.13;106832;1265;22735;-72
2022/08/09 01:16:32;;;;;;;8.90;1.70;;;;;;;12.91;68.47;101198.98;106756;1264;22603;-72
2022/08/09 01:19:21;;;;;;;8.80;1.30;;;;;;;12.88;68.56;101196.71;106813;1265;22538;-72
2022/08/09 01:22:05;;;;;;;11.60;1.50;;;;;;;12.86;68.60;101191.83;106929;1265;25219;-72
2022/08/09 01:24:48;;;;;;;10.60;1.40;;;;;;;12.85;68.73;101192.45;106766;1265;22719;-72
2022/08/09 01:27:23;;;;;;;4.10;1.20;;;;;;;12.83;68.67;101194.45;106812;1265;22542;-72
2022/08/09 01:29:59;;;;;;;4.70;1.10;;;;;;;12.82;68.82;101196.02;106786;1265;25226;-72
2022/08/09 01:32:35;;;;;;;6.90;1.80;;;;;;;12.82;69.04;101195.89;106860;1265;25471;-72
2022/08/09 01:35:12;;;;;;;4.20;1.40;;;;;;;12.80;69.24;101197.02;106722;1265;22754;-73
2022/08/09 01:37:46;;;;;;;7.20;1.50;;;;;;;12.77;69.36;101197.92;106787;1265;23080;-73
2022/08/09 01:40:19;;;;;;;6.70;1.30;;;;;;;12.75;69.31;101196.73;106746;1265;23068;-72
2022/08/09 01:42:54;;;;;;;11.60;1.80;;;;;;;12.74;69.49;101199.52;106749;1265;25420;-73
2022/08/09 01:45:26;;;;;;;6.70;1.40;;;;;;;12.72;69.47;101197.55;106630;1265;25047;-73
2022/08/09 01:47:59;;;;;;;5.80;1.30;;;;;;;12.70;69.73;101200.14;106822;1265;22567;-73
2022/08/09 01:50:31;;;;;;;5.20;1.50;;;;;;;12.68;69.92;101199.27;106864;1265;25308;-73
2022/08/09 01:53:03;;;;;;;5.70;1.50;;;;;;;12.66;69.90;101200.76;106791;1265;24381;-73
2022/08/09 01:55:37;;;;;;;7.90;2.00;;;;;;;12.64;69.92;101201.67;106863;1265;24398;-73
2022/08/09 01:58:10;;;;;;;6.20;1.40;;;;;;;12.62;69.90;101204.98;106788;1265;22606;-72
2022/08/09 02:00:43;;;;;;;6.40;1.20;;;;;;;12.60;70.04;101205.83;107080;1265;25332;-72
2022/08/09 02:03:16;;;;;;;5.60;1.40;;;;;;;12.58;70.29;101206.69;106779;1265;22918;-72
2022/08/09 02:05:50;;;;;;;6.00;1.60;;;;;;;12.56;70.20;101211.48;106750;1265;23164;-73
2022/08/09 02:08:23;;;;;;;8.50;1.50;;;;;;;12.54;70.28;101210.77;106775;1268;22559;-72
2022/08/09 02:10:59;;;;;;;6.80;1.60;;;;;;;12.53;70.34;101208.29;106794;1264;22580;-73
2022/08/09 02:13:31;;;;;;;6.50;1.40;;;;;;;12.52;70.48;101209.77;106887;1265;23415;-72
2022/08/09 02:16:07;;;;;;;13.00;1.50;;;;;;;12.51;70.79;101207.98;106885;1265;22569;-72
2022/08/09 02:18:40;;;;;;;7.20;1.40;;;;;;;12.48;70.71;101207.19;106691;1265;22557;-72
2022/08/09 02:21:16;;;;;;;6.50;1.40;;;;;;;12.47;70.85;101206.09;106895;1265;24360;-75
2022/08/09 02:23:50;;;;;;;4.60;1.70;;;;;;;12.45;70.84;101204.86;106821;1265;22659;-73
2022/08/09 02:26:23;;;;;;;7.40;1.60;;;;;;;12.44;70.98;101202.95;106811;1265;22541;-72
2022/08/09 02:28:59;;;;;;;5.60;1.20;;;;;;;12.43;71.21;101203.08;106731;1265;22538;-72
2022/08/09 02:31:33;;;;;;;7.10;1.50;;;;;;;12.42;71.23;101198.94;106913;1265;22578;-73
2022/08/09 02:34:10;;;;;;;6.20;1.30;;;;;;;12.40;71.28;101195.42;106767;1265;22526;-72
2022/08/09 02:36:46;;;;;;;7.10;1.30;;;;;;;12.39;71.39;101194.89;106786;1265;22570;-72
2022/08/09 02:39:23;;;;;;;6.90;1.60;;;;;;;12.39;71.33;101197.48;106850;1264;22524;-72
2022/08/09 02:41:58;;;;;;;3.90;1.20;;;;;;;12.38;71.34;101193.18;106832;1265;25222;-73
2022/08/09 02:44:34;;;;;;;6.70;1.50;;;;;;;12.37;71.51;101196.05;106847;1265;25113;-72
2022/08/09 02:47:09;;;;;;;5.30;1.30;;;;;;;12.36;71.48;101192.66;106557;1265;22555;-73
2022/08/09 02:49:57;;;;;;;8.10;1.40;;;;;;;12.35;71.73;101187.66;106806;1265;25312;-72
2022/08/09 02:52:34;;;;;;;4.20;1.20;;;;;;;12.35;71.82;101192.45;107075;1264;25311;-73
2022/08/09 02:55:09;;;;;;;6.70;1.40;;;;;;;12.37;71.85;101193.09;106850;1265;25233;-73
2022/08/09 02:57:43;;;;;;;10.30;1.60;;;;;;;12.38;71.94;101191.53;106910;1265;22576;-72
2022/08/09 03:00:16;;;;;;;9.10;1.30;;;;;;;12.39;72.29;101190.41;107119;1265;23310;-73
2022/08/09 03:02:51;;;;;;;6.10;1.30;;;;;;;12.41;72.40;101193.86;106753;1265;25544;-72
2022/08/09 03:05:23;;;;;;;6.80;1.40;;;;;;;12.43;72.41;101196.35;106748;1265;22652;-72
2022/08/09 03:07:55;;;;;;;4.60;1.50;;;;;;;12.43;72.64;101194.80;106731;1265;24269;-73
2022/08/09 03:10:27;;;;;;;6.20;1.50;;;;;;;12.43;72.68;101196.73;106810;1265;24235;-72
2022/08/09 03:13:00;;;;;;;7.40;1.40;;;;;;;12.43;72.72;101194.59;106736;1265;22538;-72
2022/08/09 03:15:32;;;;;;;7.60;1.40;;;;;;;12.43;72.78;101199.15;106766;1265;25541;-73
2022/08/09 03:18:06;;;;;;;11.10;2.30;;;;;;;12.43;72.87;101200.98;106823;1265;22672;-72
2022/08/09 03:20:39;;;;;;;12.60;1.60;;;;;;;12.42;73.00;101202.05;106930;1265;25290;-71
2022/08/09 03:23:11;;;;;;;6.20;1.70;;;;;;;12.42;72.98;101203.01;106871;1265;25371;-72
2022/08/09 03:25:43;;;;;;;7.70;1.60;;;;;;;12.42;73.02;101206.13;106792;1265;22527;-72
2022/08/09 03:28:16;;;;;;;9.40;1.80;;;;;;;12.43;73.11;101206.55;106744;1265;22573;-73
2022/08/09 03:30:48;;;;;;;8.30;1.50;;;;;;;12.45;73.23;101206.33;106840;1264;25343;-73
2022/08/09 03:33:21;;;;;;;9.40;1.50;;;;;;;12.46;73.44;101208.85;106825;1265;24347;-73
2022/08/09 03:35:52;;;;;;;10.50;1.60;;;;;;;12.45;73.54;101209.81;106816;1265;22655;-73
2022/08/09 03:38:25;;;;;;;11.40;1.70;;;;;;;12.46;73.63;101210.34;106817;1265;22782;-73
2022/08/09 03:40:56;;;;;;;8.10;1.40;;;;;;;12.46;73.80;101207.95;106722;1265;24188;-73
2022/08/09 03:43:28;;;;;;;10.70;1.90;;;;;;;12.47;73.88;101205.48;106806;1265;22520;-73
2022/08/09 03:45:59;;;;;;;11.10;1.90;;;;;;;12.49;74.05;101203.32;106805;1265;22530;-73
2022/08/09 03:48:33;;;;;;;14.40;2.40;;;;;;;12.52;74.02;101200.98;106810;1264;22465;-73
2022/08/09 03:51:07;;;;;;;9.60;1.70;;;;;;;12.53;74.04;101197.00;106733;1265;24220;-73
2022/08/09 03:53:39;;;;;;;10.10;1.80;;;;;;;12.56;74.23;101193.19;106870;1265;22711;-73
2022/08/09 03:56:10;;;;;;;9.20;1.80;;;;;;;12.59;74.30;101196.08;106845;1265;24280;-73
2022/08/09 03:58:42;;;;;;;9.60;1.80;;;;;;;12.62;74.68;101199.83;106850;1264;22545;-72
2022/08/09 04:01:14;;;;;;;12.50;2.20;;;;;;;12.66;74.86;101205.53;106768;1265;22534;-73
2022/08/09 04:03:45;;;;;;;6.20;1.50;;;;;;;12.72;74.96;101202.53;106946;1265;25773;-73
2022/08/09 04:06:17;;;;;;;9.20;1.90;;;;;;;12.76;75.00;101206.33;106863;1265;22749;-73
2022/08/09 04:08:48;;;;;;;7.60;2.10;;;;;;;12.82;75.06;101206.76;106797;1265;22534;-73
2022/08/09 04:11:20;;;;;;;8.40;2.20;;;;;;;12.87;75.22;101204.54;106918;1265;22538;-73
2022/08/09 04:13:51;;;;;;;11.60;2.40;;;;;;;12.93;75.45;101206.02;106708;1265;23816;-73
2022/08/09 04:16:22;;;;;;;10.40;1.80;;;;;;;12.97;75.56;101209.33;106827;1265;22698;-73
2022/08/09 04:18:53;;;;;;;9.20;1.90;;;;;;;13.01;75.85;101205.40;106812;1264;23166;-72
2022/08/09 04:21:25;;;;;;;7.90;1.90;;;;;;;13.04;76.08;101211.99;106808;1265;23093;-72
2022/08/09 04:23:56;;;;;;;7.10;1.80;;;;;;;13.05;75.91;101214.17;106769;1265;25373;-72
2022/08/09 04:26:28;;;;;;;15.50;1.80;;;;;;;13.09;75.64;101222.34;106838;1265;22536;-72
2022/08/09 04:28:59;;;;;;;13.50;1.90;;;;;;;13.15;75.68;101223.90;106740;1265;25358;-72
2022/08/09 04:31:31;;;;;;;12.60;2.00;;;;;;;13.22;76.20;101226.90;106777;1265;25304;-73
2022/08/09 04:34:02;;;;;;;13.20;2.60;;;;;;;13.32;76.31;101226.00;106767;1265;25226;-72
2022/08/09 04:36:33;;;;;;;11.10;1.80;;;;;;;13.42;76.39;101227.87;106775;1265;22619;-73
2022/08/09 04:39:08;;;;;;;11.50;1.90;;;;;;;13.52;76.56;101227.75;106793;1265;27277;-72
2022/08/09 04:41:39;;;;;;;14.80;1.90;;;;;;;13.64;76.87;101230.70;106911;1265;24240;-72
2022/08/09 04:44:11;;;;;;;13.90;2.00;;;;;;;13.75;77.12;101231.36;106875;1265;22565;-72
2022/08/09 04:46:43;;;;;;;10.30;2.30;;;;;;;13.85;76.91;101230.27;107585;1256;25374;-80
2022/08/09 04:49:14;;;;;;;12.00;2.20;;;;;;;13.95;77.16;101229.38;107473;1265;22634;-81
2022/08/09 04:51:45;;;;;;;8.90;2.10;;;;;;;14.04;77.47;101236.59;107572;1265;22606;-80
2022/08/09 04:54:18;;;;;;;12.60;3.20;;;;;;;14.15;77.12;101241.39;107963;1265;22650;-82
2022/08/09 04:56:49;;;;;;;14.10;2.70;;;;;;;14.25;77.21;101243.15;107827;1265;23362;-80
2022/08/09 04:59:21;;;;;;;9.80;2.10;;;;;;;14.36;77.53;101240.32;107701;1267;22539;-80
2022/08/09 05:01:52;;;;;;;11.40;2.90;;;;;;;14.47;77.52;101239.77;107715;1267;22528;-81
2022/08/09 05:04:23;;;;;;;14.00;2.20;;;;;;;14.59;77.28;101234.83;107806;1267;24240;-82
2022/08/09 05:06:54;;;;;;;9.00;2.20;;;;;;;14.71;76.86;101241.17;107865;1267;22534;-81
2022/08/09 05:09:27;;;;;;;8.50;1.80;;;;;;;14.82;76.90;101247.41;107495;1267;25706;-82
2022/08/09 05:11:59;;;;;;;8.60;1.80;;;;;;;14.94;76.71;101249.97;107918;1267;24262;-80
2022/08/09 05:14:30;;;;;;;5.60;1.80;;;;;;;15.06;76.68;101254.38;107898;1267;22502;-79
2022/08/09 05:17:01;;;;;;;10.00;1.90;;;;;;;15.15;76.63;101252.17;107543;1266;22548;-79
2022/08/09 05:19:32;;;;;;;7.30;1.70;;;;;;;15.22;76.68;101259.30;107506;1267;23122;-80
2022/08/09 05:22:04;;;;;;;6.90;1.30;;;;;;;15.28;76.51;101266.30;107555;1266;22559;-80
2022/08/09 05:24:35;;;;;;;11.00;2.50;;;;;;;15.32;76.50;101260.44;107917;1267;24218;-81
2022/08/09 05:27:06;;;;;;;11.00;1.80;;;;;;;15.37;76.38;101259.86;107884;1267;22585;-80
2022/08/09 05:29:37;;;;;;;6.40;1.50;;;;;;;15.42;75.78;101259.89;107850;1267;22458;-80
2022/08/09 05:32:11;;;;;;;9.50;1.70;;;;;;;15.48;75.69;101263.17;107885;1267;23497;-80
2022/08/09 05:34:42;;;;;;;9.50;2.00;;;;;;;15.56;75.74;101262.66;107894;1267;22638;-81
2022/08/09 05:37:15;;;;;;;4.80;1.70;;;;;;;15.66;75.69;101264.46;107890;1267;22683;-80
2022/08/09 05:39:46;;;;;;;5.90;1.70;;;;;;;15.78;75.47;101266.06;107546;1267;23485;-82
2022/08/09 05:42:18;;;;;;;7.90;1.90;;;;;;;15.90;75.43;101265.33;107872;1267;22546;-80
2022/08/09 05:44:49;;;;;;;14.20;1.60;;;;;;;16.03;74.68;101268.35;107978;1267;22561;-80
2022/08/09 05:47:21;;;;;;;8.50;2.10;;;;;;;16.11;74.46;101264.38;107590;1267;24232;-80
2022/08/09 05:49:56;;;;;;;7.60;1.10;;;;;;;16.19;74.12;101263.28;108014;1267;23943;-80
2022/08/09 05:52:27;;;;;;;4.50;1.50;;;;;;;16.25;73.90;101263.11;107854;1267;22533;-79
2022/08/09 05:54:58;;;;;;;8.20;1.30;;;;;;;16.32;73.99;101265.48;107792;1266;22551;-80
2022/08/09 05:57:29;;;;;;;6.00;1.50;;;;;;;16.39;74.05;101263.93;107855;1267;22537;-80
2022/08/09 06:00:00;;;;;;;7.30;1.50;;;;;;;16.45;73.65;101265.48;107922;1267;22531;-80
2022/08/09 06:02:31;;;;;;;6.80;1.50;;;;;;;16.50;73.17;101267.31;107978;1267;22474;-81
2022/08/09 06:05:05;;;;;;;8.30;1.40;;;;;;;16.55;73.29;101272.96;107903;1267;25315;-80
2022/08/09 06:07:37;;;;;;;6.30;1.20;;;;;;;16.62;73.33;101271.30;107669;1267;22573;-80
2022/08/09 06:10:09;;;;;;;8.90;1.30;;;;;;;16.69;72.84;101270.65;107396;1267;22543;-80
2022/08/09 06:12:41;;;;;;;11.10;2.10;;;;;;;16.73;72.47;101269.31;107716;1267;22722;-82
2022/08/09 06:15:13;;;;;;;6.80;1.40;;;;;;;16.78;72.60;101269.35;107437;1267;22550;-81
2022/08/09 06:17:44;;;;;;;7.00;1.50;;;;;;;16.81;72.36;101271.23;107448;1267;22624;-80
2022/08/09 06:20:15;;;;;;;7.10;1.30;;;;;;;16.87;72.39;101273.30;107681;1267;22640;-80
2022/08/09 06:22:47;;;;;;;8.00;1.40;;;;;;;16.93;72.36;101271.20;107646;1267;22564;-78
2022/08/09 06:25:18;;;;;;;5.60;1.30;;;;;;;17.01;72.12;101276.30;107288;1267;24211;-80
2022/08/09 06:27:50;;;;;;;7.20;1.40;;;;;;;17.09;71.69;101285.39;107651;1267;24356;-80
2022/08/09 06:30:21;;;;;;;7.00;1.70;;;;;;;17.15;71.39;101284.48;107370;1267;24237;-80
2022/08/09 06:32:53;;;;;;;7.40;1.30;;;;;;;17.22;70.96;101278.75;107763;1267;22547;-82
2022/08/09 06:35:25;;;;;;;6.00;1.40;;;;;;;17.28;70.49;101285.21;107812;1267;22642;-80
2022/08/09 06:37:56;;;;;;;11.00;1.60;;;;;;;17.34;70.54;101285.15;107742;1267;22594;-81
2022/08/09 06:40:27;;;;;;;7.00;1.30;;;;;;;17.39;70.57;101285.61;107714;1267;22587;-84
2022/08/09 06:42:59;;;;;;;8.70;1.60;;;;;;;17.46;70.41;101286.54;107759;1267;24821;-81
2022/08/09 06:45:31;;;;;;;9.50;1.70;;;;;;;17.55;70.57;101285.35;107718;1267;22743;-81
2022/08/09 06:48:02;;;;;;;5.90;1.50;;;;;;;17.63;70.01;101288.84;107410;1267;22560;-81
2022/08/09 06:50:34;;;;;;;6.30;1.60;;;;;;;17.70;69.95;101289.26;107808;1267;22559;-81
2022/08/09 06:53:05;;;;;;;7.60;1.40;;;;;;;17.77;69.55;101294.44;107719;1267;22463;-79
2022/08/09 06:55:37;;;;;;;8.30;1.50;;;;;;;17.85;69.36;101292.64;107595;1267;22534;-80
2022/08/09 06:58:08;;;;;;;11.90;1.70;;;;;;;17.91;69.21;101287.29;107646;1267;22840;-80
2022/08/09 07:00:40;;;;;;;8.10;1.40;;;;;;;17.97;68.86;101295.84;107367;1267;23109;-81
2022/08/09 07:03:11;;;;;;;8.90;1.60;;;;;;;18.03;68.77;101299.83;107633;1267;22457;-80
2022/08/09 07:05:42;;;;;;;6.30;1.40;;;;;;;18.08;68.80;101300.73;107599;1267;22556;-81
2022/08/09 07:08:13;;;;;;;5.80;1.20;;;;;;;18.15;68.53;101305.33;107765;1267;22588;-82
2022/08/09 07:10:45;;;;;;;8.00;1.60;;;;;;;18.19;67.97;101304.23;107793;1267;22548;-82
2022/08/09 07:13:17;;;;;;;13.30;1.60;;;;;;;18.23;67.96;101310.67;107743;1267;23203;-82
2022/08/09 07:15:49;;;;;;;11.00;1.90;;;;;;;18.28;67.51;101306.27;107690;1267;22638;-81
2022/08/09 07:18:20;;;;;;;6.20;1.20;;;;;;;18.35;67.13;101309.70;107634;1267;22525;-81
2022/08/09 07:20:52;;;;;;;7.90;1.10;;;;;;;18.45;66.77;101315.05;107662;1267;24377;-80
2022/08/09 07:23:24;;;;;;;4.20;1.10;;;;;;;18.53;66.58;101319.47;107746;1267;24210;-81
2022/08/09 07:25:55;;;;;;;8.30;1.20;;;;;;;18.62;66.45;101317.90;107729;1267;22767;-81
2022/08/09 07:28:27;;;;;;;4.80;1.00;;;;;;;18.69;66.07;101318.75;107705;1266;25371;-82
2022/08/09 07:31:00;;;;;;;4.30;0.90;;;;;;;18.75;65.57;101318.04;107818;1267;23389;-78
2022/08/09 07:33:31;;;;;;;8.20;1.30;;;;;;;18.80;65.28;101318.77;107483;1267;22534;-80
2022/08/09 07:36:03;;;;;;;6.30;1.20;;;;;;;18.85;65.29;101319.77;107298;1267;25299;-84
2022/08/09 07:38:35;;;;;;;9.30;1.10;;;;;;;18.93;64.88;101320.20;107936;1267;23879;-79
2022/08/09 07:41:07;;;;;;;9.80;1.30;;;;;;;18.99;64.86;101320.73;107997;1267;24032;-85
2022/08/09 07:43:39;;;;;;;9.20;1.20;;;;;;;19.04;64.69;101323.82;107873;1267;25379;-81
2022/08/09 07:46:10;;;;;;;8.10;1.30;;;;;;;19.11;64.62;101324.19;107722;1266;22526;-82
2022/08/09 07:48:42;;;;;;;6.40;1.50;;;;;;;19.20;64.53;101323.84;107864;1267;22588;-80
2022/08/09 07:51:15;;;;;;;7.80;1.10;;;;;;;19.27;64.21;101325.18;107786;1267;24354;-80
2022/08/09 07:53:48;;;;;;;6.10;1.00;;;;;;;19.34;63.87;101328.30;107595;1267;22598;-79
2022/08/09 07:56:19;;;;;;;9.50;1.20;;;;;;;19.41;63.72;101321.27;107279;1267;24089;-80
2022/08/09 07:58:51;;;;;;;8.70;1.00;;;;;;;19.47;63.57;101323.27;107363;1267;22560;-79
2022/08/09 08:01:22;;;;;;;5.80;1.00;;;;;;;19.55;63.45;101323.83;106964;1267;22528;-78
2022/08/09 08:03:53;;;;;;;7.80;1.20;;;;;;;19.64;63.65;101321.45;106922;1267;22657;-76
2022/08/09 08:06:26;;;;;;;7.20;0.80;;;;;;;19.74;63.36;101320.88;106951;1267;22534;-76
2022/08/09 08:08:57;;;;;;;9.40;1.10;;;;;;;19.81;62.79;101321.17;106990;1267;22835;-77
2022/08/09 08:11:28;;;;;;;7.60;0.90;;;;;;;19.85;62.77;101318.02;106974;1267;26527;-76
2022/08/09 08:13:59;;;;;;;6.50;1.00;;;;;;;19.91;62.79;101323.80;107011;1267;22491;-77
2022/08/09 08:16:31;;;;;;;5.90;0.90;;;;;;;20.01;62.61;101326.25;107203;1267;22562;-78
2022/08/09 08:19:03;;;;;;;12.50;1.10;;;;;;;20.09;62.33;101327.73;107342;1267;24224;-77
2022/08/09 08:21:34;;;;;;;6.60;0.90;;;;;;;20.21;62.23;101331.15;106882;1267;22543;-78
2022/08/09 08:24:07;;;;;;;10.80;1.40;;;;;;;20.30;62.28;101329.30;106842;1266;22705;-78
2022/08/09 08:26:38;;;;;;;6.40;1.00;;;;;;;20.41;62.21;101326.45;107266;1267;25249;-76
2022/08/09 08:29:10;;;;;;;6.30;1.10;;;;;;;20.51;62.02;101329.67;106988;1267;22562;-77
2022/08/09 08:31:41;;;;;;;11.30;1.30;;;;;;;20.59;61.75;101327.00;107061;1267;22544;-78
2022/08/09 08:34:12;;;;;;;12.80;1.10;;;;;;;20.67;61.52;101329.08;107257;1267;22527;-77
2022/08/09 08:36:44;;;;;;;3.90;0.90;;;;;;;20.76;61.52;101324.89;107210;1267;24303;-79
2022/08/09 08:39:16;;;;;;;4.80;0.60;;;;;;;20.88;60.25;101327.92;107249;1267;22526;-77
2022/08/09 08:41:47;;;;;;;3.40;0.70;;;;;;;21.00;59.79;101328.06;107233;1267;22559;-77
2022/08/09 08:44:22;;;;;;;8.20;0.90;;;;;;;21.15;59.56;101329.18;107328;1266;22540;-76
2022/08/09 08:46:54;;;;;;;6.90;0.90;;;;;;;21.33;59.00;101330.48;107351;1267;22645;-77
2022/08/09 08:49:26;;;;;;;8.60;1.00;;;;;;;21.44;58.82;101329.53;107330;1267;22721;-76
2022/08/09 08:51:58;;;;;;;7.30;0.80;;;;;;;21.50;57.99;101331.59;107303;1267;22535;-77
2022/08/09 08:54:30;;;;;;;5.90;0.80;;;;;;;21.54;57.69;101331.20;107201;1267;25739;-76
2022/08/09 08:57:03;;;;;;;4.60;0.80;;;;;;;21.62;57.69;101331.28;107259;1267;22551;-77
2022/08/09 08:59:34;;;;;;;3.40;0.60;;;;;;;21.72;57.20;101334.39;107387;1267;22546;-77
2022/08/09 09:02:07;;;;;;;5.20;0.80;;;;;;;21.78;56.44;101333.09;107144;1266;22547;-77
2022/08/09 09:04:43;;;;;;;5.90;0.80;;;;;;;21.82;56.81;101330.44;107310;1267;22528;-77
2022/08/09 09:07:15;;;;;;;7.00;1.40;;;;;;;21.91;56.67;101330.57;107203;1267;22521;-77
2022/08/09 09:09:49;;;;;;;5.20;1.00;;;;;;;22.00;56.49;101334.26;107255;1267;22546;-79
2022/08/09 09:12:25;;;;;;;5.20;0.70;;;;;;;22.11;56.21;101331.08;107230;1267;24059;-76
2022/08/09 09:14:59;;;;;;;6.10;0.80;;;;;;;22.22;55.65;101331.92;107264;1267;25493;-76
2022/08/09 09:17:31;;;;;;;4.40;0.80;;;;;;;22.31;55.12;101327.95;107250;1267;25368;-77
2022/08/09 09:20:06;;;;;;;5.30;0.80;;;;;;;22.38;54.91;101331.90;107205;1267;24218;-78
2022/08/09 09:22:52;;;;;;;6.40;0.80;;;;;;;22.43;54.57;101331.54;107204;1267;26350;-76
2022/08/09 09:25:40;;;;;;;6.70;0.70;;;;;;;22.48;54.50;101332.35;107287;1267;22531;-78
2022/08/09 09:28:13;;;;;;;3.40;0.70;;;;;;;22.54;54.23;101334.34;107282;1267;24237;-78
2022/08/09 09:30:56;;;;;;;4.40;0.70;;;;;;;22.62;53.85;101338.46;107248;1267;22512;-77
2022/08/09 09:33:35;;;;;;;4.70;0.70;;;;;;;22.67;54.12;101339.14;107315;1266;23016;-77
2022/08/09 09:36:09;;;;;;;5.00;0.80;;;;;;;22.78;53.59;101335.56;107288;1267;25425;-77
2022/08/09 09:38:45;;;;;;;6.80;1.10;;;;;;;22.89;53.14;101340.90;107297;1267;22689;-79
2022/08/09 09:41:34;;;;;;;3.80;0.80;;;;;;;22.93;52.96;101339.55;107286;1266;23190;-78
2022/08/09 09:44:06;;;;;;;4.70;0.90;;;;;;;22.98;52.23;101339.00;107434;1267;22477;-76
2022/08/09 09:46:39;;;;;;;4.10;0.90;;;;;;;23.03;52.37;101339.41;107325;1267;25261;-77
2022/08/09 09:49:12;;;;;;;6.60;0.80;;;;;;;23.09;51.90;101340.39;107252;1267;24222;-77
2022/08/09 09:51:43;;;;;;;4.00;0.70;;;;;;;23.14;51.60;101341.02;107241;1266;22531;-79
2022/08/09 09:54:17;;;;;;;5.30;0.70;;;;;;;23.16;51.12;101339.25;107211;1267;23191;-77
2022/08/09 09:56:50;;;;;;;7.70;0.70;;;;;;;23.19;50.93;101331.89;107294;1267;22553;-77
2022/08/09 09:59:34;;;;;;;3.30;0.50;;;;;;;23.25;50.90;101331.39;107265;1267;22571;-77
2022/08/09 10:02:06;;;;;;;6.10;0.60;;;;;;;23.31;50.21;101327.52;107267;1267;23090;-77
2022/08/09 10:04:41;;;;;;;7.80;0.60;;;;;;;23.36;49.17;101323.08;102635;1267;6202275;-77
2022/08/09 10:07:27;;;;;;;6.60;0.60;;;;;;;23.42;49.30;101322.92;107209;1267;26526;-79
2022/08/09 10:10:00;;;;;;;4.00;0.60;;;;;;;23.49;48.97;101317.93;107259;1266;24241;-78
2022/08/09 10:12:33;;;;;;;5.00;0.70;;;;;;;23.53;48.31;101316.20;107293;1267;22519;-77
2022/08/09 10:15:14;;;;;;;1.90;0.50;;;;;;;23.56;48.02;101313.05;107284;1267;25434;-77
2022/08/09 10:17:49;;;;;;;4.10;0.50;;;;;;;23.61;47.76;101320.37;107294;1267;23838;-77
2022/08/09 10:20:29;;;;;;;4.80;0.60;;;;;;;23.68;47.58;101315.83;107271;1267;22525;-77
2022/08/09 10:23:13;;;;;;;5.10;0.40;;;;;;;23.71;46.66;101319.46;107219;1267;24238;-77
2022/08/09 10:25:46;;;;;;;4.00;0.40;;;;;;;23.76;46.53;101316.01;107277;1267;22555;-78
2022/08/09 10:28:17;;;;;;;2.20;0.50;;;;;;;23.81;46.59;101312.70;107389;1267;25369;-78
2022/08/09 10:30:49;;;;;;;3.40;0.60;;;;;;;23.85;46.28;101312.05;107245;1267;24291;-77
2022/08/09 10:33:20;;;;;;;5.80;0.80;;;;;;;23.86;46.30;101312.25;107305;1267;24291;-77
2022/08/09 10:35:52;;;;;;;4.10;0.80;;;;;;;23.86;46.64;101310.01;107200;1267;23036;-78
2022/08/09 10:38:24;;;;;;;2.50;0.80;;;;;;;23.87;45.41;101310.67;107279;1267;23407;-77
2022/08/09 10:40:56;;;;;;;3.80;0.70;;;;;;;23.81;44.81;101305.80;107333;1267;22548;-78
2022/08/09 10:43:28;;;;;;;2.00;0.70;;;;;;;23.75;44.64;101309.03;107296;1267;22480;-77
2022/08/09 10:46:21;;;;;;;4.80;0.90;;;;;;;23.65;44.09;101305.41;107280;1267;22537;-78
2022/08/09 10:48:57;;;;;;;2.90;0.70;;;;;;;23.58;44.37;101305.79;107300;1267;24208;-78
2022/08/09 10:51:38;;;;;;;2.80;0.70;;;;;;;23.57;44.04;101299.50;106963;1265;22565;-77
2022/08/09 10:54:12;;;;;;;4.60;0.70;;;;;;;23.57;43.57;101298.05;107392;1267;23494;-78
2022/08/09 10:56:44;;;;;;;2.80;0.80;;;;;;;23.60;43.42;101296.17;107405;1268;26514;-77
2022/08/09 10:59:32;;;;;;;3.60;0.70;;;;;;;23.61;43.30;101292.02;107314;1267;24269;-77
2022/08/09 11:02:04;;;;;;;3.30;0.50;;;;;;;23.67;43.52;101289.17;107323;1265;24202;-77
2022/08/09 11:04:36;;;;;;;4.20;0.60;;;;;;;23.72;42.90;101292.33;107339;1268;22521;-78
2022/08/09 11:07:32;;;;;;;4.30;0.70;;;;;;;23.72;42.64;101292.69;107334;1267;22607;-77
2022/08/09 11:10:04;;;;;;;3.20;0.50;;;;;;;23.74;42.83;101290.02;107265;1267;22516;-77
2022/08/09 11:12:35;;;;;;;3.70;0.60;;;;;;;23.78;42.70;101284.09;107348;1268;22707;-77
2022/08/09 11:15:25;;;;;;;3.50;0.80;;;;;;;23.84;42.56;101277.66;107311;1267;22533;-79
2022/08/09 11:17:59;;;;;;;4.70;0.60;;;;;;;23.91;42.33;101279.70;107364;1267;26557;-77
2022/08/09 11:20:46;;;;;;;4.50;0.60;;;;;;;23.93;41.78;101281.72;107279;1268;22473;-78
2022/08/09 11:23:18;;;;;;;2.50;0.50;;;;;;;23.95;41.32;101283.77;107492;1268;22470;-78
2022/08/09 11:25:50;;;;;;;3.10;0.60;;;;;;;23.94;41.01;101281.39;107318;1267;24471;-77
2022/08/09 11:28:39;;;;;;;3.90;0.80;;;;;;;23.94;41.75;101276.79;107469;1267;24229;-78
2022/08/09 11:31:44;;;;;;;5.20;0.50;;;;;;;23.98;41.89;101276.70;107376;1267;25399;-78
2022/08/09 11:34:33;;;;;;;1.90;0.60;;;;;;;24.07;41.22;101271.82;107494;1267;22528;-78
2022/08/09 11:37:07;;;;;;;2.80;0.40;;;;;;;24.12;41.18;101280.61;107283;1267;22553;-78
2022/08/09 11:40:05;;;;;;;2.60;0.50;;;;;;;24.19;41.11;101270.39;107483;1268;22538;-78
2022/08/09 11:42:46;;;;;;;3.80;0.40;;;;;;;24.23;40.57;101267.41;107407;1267;25379;-78
2022/08/09 11:45:23;;;;;;;6.80;0.80;;;;;;;24.25;41.02;101264.05;107321;1267;26454;-78